ANC weather

Ted Stevens Anchorage International Airport
Anchorage, Alaska, United States

Public forecast

Using degrees Fahrenheit for public forecast. Weather courtesy of forecast.io.

METAR (pilot weather report)

Retrieved 2019/04/23 18:53 UTC (51 minutes ago):

PANC 231853Z 23003KT 10SM BKN044 BKN060 02/M06 A2977

TAF (pilot weather forecast)

Retrieved 2019/04/23 18:39 UTC (1 hour ago):

TAF PANC 231736Z 2318/2424 VRB06KT P6SM VCSH SCT040 BKN060 FM232100 22006KT P6SM VCSH BKN060 FM241200 VRB03KT P6SM VCSH BKN060